Time;durP1;ratioP1;P1;durP2;ratioP2;P2;SDS_P1;SDS_P2;PMS_P1;PMS_P2;Temp;Humidity;BMP_temperature;BMP_pressure;BME280_temperature;BME280_humidity;BME280_pressure;Samples;Min_cycle;Max_cycle;Signal;HPM_P1;HPM_P2
2023/08/09 00:00:32;;;;;;;4.18;1.60;;;17.60;99.90;;;;;;5004786;28;20109;-75
2023/08/09 00:03:01;;;;;;;3.25;1.40;;;17.60;99.90;;;;;;5000994;28;20108;-73
2023/08/09 00:05:27;;;;;;;2.70;1.20;;;17.60;99.90;;;;;;5000773;28;20045;-74
2023/08/09 00:07:52;;;;;;;5.00;1.60;;;17.60;99.90;;;;;;4995889;28;20160;-74
2023/08/09 00:10:18;;;;;;;2.35;1.45;;;17.50;99.90;;;;;;4986869;28;20033;-74
2023/08/09 00:12:44;;;;;;;2.90;1.63;;;17.50;99.90;;;;;;5003135;28;20057;-74
2023/08/09 00:15:10;;;;;;;4.72;1.63;;;17.50;99.90;;;;;;5003917;28;20033;-75
2023/08/09 00:17:36;;;;;;;1.90;1.17;;;17.50;99.90;;;;;;4983140;28;20396;-74
2023/08/09 00:20:02;;;;;;;3.08;2.25;;;17.40;99.90;;;;;;4983500;28;20053;-74
2023/08/09 00:22:28;;;;;;;2.78;1.30;;;17.40;99.90;;;;;;4981396;28;20036;-75
2023/08/09 00:24:53;;;;;;;3.08;1.45;;;17.30;99.90;;;;;;4999535;28;20038;-74
2023/08/09 00:27:19;;;;;;;1.70;1.17;;;17.30;99.90;;;;;;5002956;28;20034;-74
2023/08/09 00:29:44;;;;;;;2.78;1.67;;;17.30;99.90;;;;;;4985570;28;20042;-73
2023/08/09 00:32:10;;;;;;;2.33;1.20;;;17.30;99.90;;;;;;5002640;28;20032;-74
2023/08/09 00:34:36;;;;;;;2.92;1.60;;;17.20;99.90;;;;;;5002657;28;20036;-74
2023/08/09 00:37:02;;;;;;;1.85;1.23;;;17.20;99.90;;;;;;4997118;28;20026;-74
2023/08/09 00:39:28;;;;;;;6.82;1.58;;;17.20;99.90;;;;;;5001569;28;20382;-73
2023/08/09 00:41:53;;;;;;;1.85;1.17;;;17.10;99.90;;;;;;5005482;28;20429;-73
2023/08/09 00:44:19;;;;;;;4.85;1.50;;;17.10;99.90;;;;;;4998554;28;20038;-73
2023/08/09 00:46:45;;;;;;;3.05;1.45;;;17.10;99.90;;;;;;5000898;28;20026;-73
2023/08/09 00:49:10;;;;;;;4.20;1.48;;;17.00;99.90;;;;;;4997986;28;20034;-74
2023/08/09 00:51:37;;;;;;;1.98;1.13;;;17.10;99.90;;;;;;5001504;28;20078;-75
2023/08/09 00:54:02;;;;;;;1.98;1.20;;;17.10;99.90;;;;;;4999773;28;20030;-74
2023/08/09 00:56:28;;;;;;;7.25;1.45;;;17.10;99.90;;;;;;4988084;28;20044;-74
2023/08/09 00:58:54;;;;;;;2.00;1.20;;;17.00;99.90;;;;;;5001652;28;20034;-74
2023/08/09 01:01:20;;;;;;;2.78;1.02;;;17.00;99.90;;;;;;5004613;28;20461;-73
2023/08/09 01:03:45;;;;;;;2.55;1.30;;;17.00;99.90;;;;;;5007755;28;20049;-75
2023/08/09 01:06:52;;;;;;;2.22;1.10;;;17.00;99.90;;;;;;5004254;28;20104;-74
2023/08/09 01:09:26;;;;;;;6.13;1.30;;;17.00;99.90;;;;;;5007153;28;20572;-75
2023/08/09 01:12:20;;;;;;;2.17;1.13;;;17.00;99.90;;;;;;5006025;28;20030;-73
2023/08/09 01:14:50;;;;;;;1.98;1.10;;;17.00;99.90;;;;;;4968002;28;20412;-75
2023/08/09 01:17:17;;;;;;;2.20;1.23;;;17.00;99.90;;;;;;4990174;28;20025;-75
2023/08/09 01:19:49;;;;;;;2.45;1.35;;;17.00;99.90;;;;;;5006576;28;20031;-74
2023/08/09 01:22:21;;;;;;;2.50;1.58;;;17.00;99.90;;;;;;5009718;28;20025;-73
2023/08/09 01:24:48;;;;;;;4.18;1.00;;;17.00;99.90;;;;;;5006068;28;20026;-74
2023/08/09 01:27:13;;;;;;;3.70;1.48;;;17.00;99.90;;;;;;5008886;28;20046;-74
2023/08/09 01:29:39;;;;;;;3.03;1.30;;;17.00;99.90;;;;;;5006370;28;20056;-74
2023/08/09 01:32:05;;;;;;;1.95;1.23;;;17.00;99.90;;;;;;4990019;28;20480;-74
2023/08/09 01:34:32;;;;;;;3.22;1.30;;;16.90;99.90;;;;;;5006956;28;20021;-73
2023/08/09 01:37:32;;;;;;;2.88;1.60;;;16.90;99.90;;;;;;5005777;28;20026;-73
2023/08/09 01:40:06;;;;;;;5.43;1.10;;;17.00;99.90;;;;;;4982711;28;20050;-74
2023/08/09 01:42:32;;;;;;;2.65;1.20;;;16.90;99.90;;;;;;5003221;28;20023;-75
2023/08/09 01:44:58;;;;;;;2.90;1.80;;;16.90;99.90;;;;;;5007235;28;20034;-74
2023/08/09 01:47:25;;;;;;;3.38;1.67;;;16.90;99.90;;;;;;5006199;28;20100;-74
2023/08/09 01:49:51;;;;;;;3.00;1.60;;;16.90;99.90;;;;;;5009263;28;20026;-74
2023/08/09 01:52:17;;;;;;;3.17;1.40;;;16.90;99.90;;;;;;4989305;28;20052;-74
2023/08/09 01:54:43;;;;;;;2.47;1.20;;;16.80;99.90;;;;;;5005740;28;20053;-74
2023/08/09 01:57:10;;;;;;;4.43;1.45;;;16.80;99.90;;;;;;5007241;28;20040;-75
2023/08/09 01:59:35;;;;;;;5.88;1.70;;;16.80;99.90;;;;;;5006326;28;20122;-74
2023/08/09 02:02:01;;;;;;;2.92;1.38;;;16.80;99.90;;;;;;4987336;28;20101;-72
2023/08/09 02:04:27;;;;;;;4.97;1.70;;;16.70;99.90;;;;;;5005139;28;20461;-75
2023/08/09 02:06:52;;;;;;;4.07;1.58;;;16.80;99.90;;;;;;5007091;28;20033;-73
2023/08/09 02:09:18;;;;;;;3.28;1.38;;;16.80;99.90;;;;;;5006377;28;20084;-74
2023/08/09 02:11:44;;;;;;;1.67;1.20;;;16.80;99.90;;;;;;4993949;28;20033;-74
2023/08/09 02:14:10;;;;;;;3.17;1.35;;;16.70;99.90;;;;;;5004175;28;20056;-75
2023/08/09 02:16:35;;;;;;;2.92;1.15;;;16.70;99.90;;;;;;5003912;28;20105;-73
2023/08/09 02:19:01;;;;;;;4.00;1.20;;;16.70;99.90;;;;;;5005017;28;20022;-72
2023/08/09 02:21:27;;;;;;;3.67;1.30;;;16.70;99.90;;;;;;4987053;28;20022;-73
2023/08/09 02:23:53;;;;;;;2.83;1.50;;;16.70;99.90;;;;;;5006503;28;20152;-75
2023/08/09 02:26:18;;;;;;;2.35;1.40;;;16.80;99.90;;;;;;5001390;28;20041;-75
2023/08/09 02:28:45;;;;;;;3.42;1.40;;;16.70;99.90;;;;;;5001137;28;20034;-74
2023/08/09 02:31:11;;;;;;;1.92;1.30;;;16.70;99.90;;;;;;4991770;28;20033;-74
2023/08/09 02:33:37;;;;;;;3.20;1.60;;;16.70;99.90;;;;;;4987712;28;20029;-74
2023/08/09 02:36:03;;;;;;;3.80;1.38;;;16.70;99.90;;;;;;5004508;28;20596;-74
2023/08/09 02:38:29;;;;;;;1.45;1.20;;;16.70;99.90;;;;;;5003611;28;20061;-74
2023/08/09 02:40:56;;;;;;;3.50;1.45;;;16.70;99.90;;;;;;5003069;28;20068;-74
2023/08/09 02:43:26;;;;;;;3.10;1.40;;;16.70;99.90;;;;;;4989513;28;20045;-74
2023/08/09 02:45:53;;;;;;;3.30;1.27;;;16.70;99.90;;;;;;5004662;28;20083;-75
2023/08/09 02:48:19;;;;;;;2.47;1.30;;;16.60;99.90;;;;;;4989742;28;20030;-75
2023/08/09 02:50:45;;;;;;;2.90;1.35;;;16.70;99.90;;;;;;4989144;28;20045;-74
2023/08/09 02:53:11;;;;;;;1.95;1.20;;;16.60;99.90;;;;;;5002439;28;20037;-74
2023/08/09 02:55:37;;;;;;;4.00;1.70;;;16.60;99.90;;;;;;5002174;28;20397;-74
2023/08/09 02:58:04;;;;;;;4.07;1.35;;;16.60;99.90;;;;;;5002854;28;20029;-74
2023/08/09 03:00:31;;;;;;;3.83;1.23;;;16.60;99.90;;;;;;5005505;28;20496;-75
2023/08/09 03:02:57;;;;;;;3.40;1.23;;;16.60;99.90;;;;;;5006645;28;20461;-74
2023/08/09 03:05:23;;;;;;;2.42;1.27;;;16.60;99.90;;;;;;5004403;28;20108;-74
2023/08/09 03:07:49;;;;;;;2.10;1.60;;;16.60;99.90;;;;;;4989614;28;20064;-74
2023/08/09 03:10:14;;;;;;;3.92;1.55;;;16.60;99.90;;;;;;5001896;28;20453;-73
2023/08/09 03:12:40;;;;;;;2.35;1.58;;;16.50;99.90;;;;;;5009573;28;20026;-74
2023/08/09 03:15:06;;;;;;;2.83;1.27;;;16.50;99.90;;;;;;4985829;28;20092;-74
2023/08/09 03:17:32;;;;;;;2.50;1.65;;;16.50;99.90;;;;;;4983278;28;20037;-74
2023/08/09 03:19:58;;;;;;;3.03;1.48;;;16.50;99.90;;;;;;4985424;28;20022;-74
2023/08/09 03:22:24;;;;;;;6.55;1.52;;;16.50;99.90;;;;;;5001801;28;20026;-74
2023/08/09 03:24:50;;;;;;;4.40;1.30;;;16.50;99.90;;;;;;4985608;28;20145;-74
2023/08/09 03:27:16;;;;;;;2.85;1.30;;;16.50;99.90;;;;;;5005872;28;20473;-73
2023/08/09 03:29:42;;;;;;;2.88;1.52;;;16.40;99.90;;;;;;5002691;28;20029;-74
2023/08/09 03:32:08;;;;;;;4.78;1.95;;;16.40;99.90;;;;;;5005469;28;20088;-74
2023/08/09 03:34:34;;;;;;;5.15;1.40;;;16.50;99.90;;;;;;4982689;28;20030;-74
2023/08/09 03:37:00;;;;;;;3.33;1.45;;;16.40;99.90;;;;;;5002660;28;20437;-73
2023/08/09 03:39:26;;;;;;;2.78;1.38;;;16.40;99.90;;;;;;4984990;28;20026;-74
2023/08/09 03:41:51;;;;;;;7.38;1.40;;;16.40;99.90;;;;;;5006746;28;20023;-73
2023/08/09 03:44:17;;;;;;;4.63;1.33;;;16.30;99.90;;;;;;5001423;28;20072;-74
2023/08/09 03:46:43;;;;;;;2.97;1.38;;;16.40;99.90;;;;;;5006504;28;20461;-73
2023/08/09 03:49:08;;;;;;;3.53;1.58;;;16.40;99.90;;;;;;4996394;28;20451;-73
2023/08/09 03:51:34;;;;;;;5.60;1.35;;;16.40;99.90;;;;;;5000630;28;20042;-73
2023/08/09 03:54:00;;;;;;;2.80;1.38;;;16.30;99.90;;;;;;4985769;28;20129;-74
2023/08/09 03:56:26;;;;;;;3.67;1.63;;;16.30;99.90;;;;;;4997655;28;20021;-73
2023/08/09 03:58:52;;;;;;;3.42;1.50;;;16.30;99.90;;;;;;5005687;28;20026;-74
2023/08/09 04:01:18;;;;;;;2.85;1.60;;;16.30;99.90;;;;;;4983776;28;20540;-74
2023/08/09 04:03:43;;;;;;;2.13;1.40;;;16.20;99.90;;;;;;5003724;28;20026;-74
2023/08/09 04:06:10;;;;;;;3.17;1.48;;;16.20;99.90;;;;;;5000404;28;20025;-73
2023/08/09 04:08:37;;;;;;;2.25;1.48;;;16.20;99.90;;;;;;5007377;28;20061;-74
2023/08/09 04:11:04;;;;;;;1.98;1.33;;;16.20;99.90;;;;;;5000399;28;20114;-74
2023/08/09 04:13:30;;;;;;;2.05;1.20;;;16.10;99.90;;;;;;5006895;28;20014;-73
2023/08/09 04:15:56;;;;;;;2.67;1.80;;;16.10;99.90;;;;;;5000837;28;20029;-73
2023/08/09 04:18:21;;;;;;;3.28;1.42;;;16.10;99.90;;;;;;4981847;28;20034;-73
2023/08/09 04:20:48;;;;;;;2.70;1.50;;;16.10;99.90;;;;;;4985627;28;20026;-74
2023/08/09 04:23:13;;;;;;;1.65;1.20;;;16.10;99.90;;;;;;4997453;28;20088;-74
2023/08/09 04:25:39;;;;;;;2.15;1.42;;;16.10;99.90;;;;;;4992994;28;20029;-75
2023/08/09 04:28:05;;;;;;;3.35;1.48;;;16.10;99.90;;;;;;5002210;28;20041;-75
2023/08/09 04:30:32;;;;;;;4.70;1.80;;;16.10;99.90;;;;;;4984974;28;20480;-74
2023/08/09 04:33:00;;;;;;;8.60;1.80;;;16.10;99.90;;;;;;5005017;28;20022;-74
2023/08/09 04:35:25;;;;;;;3.72;1.23;;;16.10;99.90;;;;;;4984321;28;20048;-74
2023/08/09 04:37:51;;;;;;;2.25;1.50;;;16.10;99.90;;;;;;4984273;28;20034;-74
2023/08/09 04:40:17;;;;;;;2.40;1.42;;;16.10;99.90;;;;;;4998274;28;20427;-74
2023/08/09 04:42:43;;;;;;;2.55;1.25;;;16.10;99.90;;;;;;5011301;28;20030;-73
2023/08/09 04:45:10;;;;;;;4.00;1.65;;;16.10;99.90;;;;;;5010989;28;20033;-74
2023/08/09 04:47:36;;;;;;;4.90;1.35;;;16.10;99.90;;;;;;5013041;28;20529;-74
2023/08/09 04:50:05;;;;;;;4.30;1.60;;;16.10;99.90;;;;;;5013934;28;20034;-73
2023/08/09 04:52:33;;;;;;;1.42;1.15;;;16.10;99.90;;;;;;5012372;28;20029;-73
2023/08/09 04:55:01;;;;;;;3.63;1.58;;;16.10;99.90;;;;;;5012458;28;20392;-73
2023/08/09 04:57:26;;;;;;;5.20;1.77;;;16.10;99.90;;;;;;4994600;28;20110;-73
2023/08/09 04:59:52;;;;;;;3.45;1.38;;;16.10;99.90;;;;;;5011144;28;20080;-73
2023/08/09 05:02:18;;;;;;;2.55;1.27;;;16.10;99.90;;;;;;5009081;28;20407;-75
2023/08/09 05:04:43;;;;;;;2.35;1.23;;;16.10;99.90;;;;;;4997380;28;20030;-74
2023/08/09 05:07:09;;;;;;;2.75;1.45;;;16.10;99.90;;;;;;5005046;28;20112;-73
2023/08/09 05:09:35;;;;;;;2.60;1.50;;;16.10;99.90;;;;;;5000324;28;20042;-74
2023/08/09 05:12:00;;;;;;;3.72;1.90;;;16.10;99.90;;;;;;4998908;28;20392;-74
2023/08/09 05:14:27;;;;;;;4.63;1.60;;;16.10;99.90;;;;;;5000900;28;20026;-74
2023/08/09 05:16:53;;;;;;;3.67;1.75;;;16.10;99.90;;;;;;5006091;28;20377;-74
2023/08/09 05:19:20;;;;;;;3.30;1.50;;;16.10;99.90;;;;;;4983675;28;20084;-74
2023/08/09 05:21:45;;;;;;;2.67;1.50;;;16.10;99.90;;;;;;4998467;28;20034;-74
2023/08/09 05:24:12;;;;;;;6.97;1.90;;;16.10;99.90;;;;;;4989271;28;20080;-74
2023/08/09 05:26:38;;;;;;;2.90;1.58;;;16.10;99.90;;;;;;5002686;28;20524;-73
2023/08/09 05:29:03;;;;;;;4.15;2.15;;;16.10;99.90;;;;;;4982199;28;20076;-74
2023/08/09 05:31:29;;;;;;;3.00;1.42;;;16.20;99.90;;;;;;4986180;28;20053;-73
2023/08/09 05:33:56;;;;;;;4.57;1.60;;;16.20;99.90;;;;;;5003418;28;20042;-74
2023/08/09 05:36:22;;;;;;;3.53;1.65;;;16.20;99.90;;;;;;4996770;28;20048;-73
2023/08/09 05:38:48;;;;;;;12.45;1.88;;;16.20;99.90;;;;;;5001435;28;20477;-73
2023/08/09 05:41:13;;;;;;;4.85;1.83;;;16.20;99.90;;;;;;5015859;28;20033;-74
2023/08/09 05:43:39;;;;;;;4.20;1.58;;;16.20;99.90;;;;;;4993844;28;20062;-74
2023/08/09 05:46:05;;;;;;;3.08;1.25;;;16.20;99.90;;;;;;5005616;28;20114;-73
2023/08/09 05:48:30;;;;;;;14.35;2.08;;;16.20;99.90;;;;;;4994165;28;20022;-73
2023/08/09 05:50:56;;;;;;;5.25;2.08;;;16.30;99.90;;;;;;5006724;28;20112;-74
2023/08/09 05:53:21;;;;;;;4.45;1.58;;;16.30;99.90;;;;;;5005409;28;20034;-75
2023/08/09 05:55:47;;;;;;;9.60;2.00;;;16.30;99.90;;;;;;4999807;28;20042;-75
2023/08/09 05:58:14;;;;;;;6.47;1.90;;;16.40;99.90;;;;;;5006064;28;20022;-75
2023/08/09 06:00:39;;;;;;;4.40;2.00;;;16.40;99.90;;;;;;5004407;28;20133;-75
2023/08/09 06:03:05;;;;;;;3.05;2.22;;;16.50;99.90;;;;;;5008690;28;20465;-76
2023/08/09 06:05:31;;;;;;;6.45;1.73;;;16.60;99.90;;;;;;5006255;28;20028;-75
2023/08/09 06:07:56;;;;;;;5.53;1.75;;;16.60;99.90;;;;;;5005309;28;20060;-75
2023/08/09 06:10:23;;;;;;;4.93;1.52;;;16.70;99.90;;;;;;5006091;28;20034;-75
2023/08/09 06:12:50;;;;;;;2.72;1.73;;;16.80;99.90;;;;;;5009572;28;20537;-75
2023/08/09 06:15:16;;;;;;;5.93;2.60;;;16.90;99.90;;;;;;5002604;28;20114;-74
2023/08/09 06:17:42;;;;;;;4.57;1.55;;;16.90;99.90;;;;;;5006097;28;20495;-75
2023/08/09 06:20:08;;;;;;;3.22;1.25;;;17.00;99.90;;;;;;5003189;28;20034;-75
2023/08/09 06:22:34;;;;;;;4.45;1.40;;;17.20;99.90;;;;;;5004190;28;20106;-75
2023/08/09 06:25:00;;;;;;;3.25;1.30;;;17.30;99.90;;;;;;5001701;28;20104;-73
2023/08/09 06:27:26;;;;;;;3.13;0.98;;;17.40;99.90;;;;;;5004972;28;20503;-73
2023/08/09 06:29:51;;;;;;;2.53;1.30;;;17.40;99.90;;;;;;5002530;28;20038;-74
2023/08/09 06:32:17;;;;;;;9.70;1.63;;;17.50;99.90;;;;;;4987741;28;20037;-72
2023/08/09 06:34:42;;;;;;;2.85;1.10;;;17.60;99.90;;;;;;5001936;28;20113;-73
2023/08/09 06:37:08;;;;;;;3.80;1.77;;;17.60;99.90;;;;;;5003810;28;20037;-72
2023/08/09 06:39:34;;;;;;;2.17;1.25;;;17.70;99.90;;;;;;5007328;28;20175;-72
2023/08/09 06:42:00;;;;;;;1.98;1.35;;;17.70;99.90;;;;;;4984066;28;20605;-72
2023/08/09 06:44:26;;;;;;;3.42;0.90;;;17.80;99.90;;;;;;4985132;28;20109;-72
2023/08/09 06:46:53;;;;;;;3.70;1.30;;;17.90;99.90;;;;;;5004014;28;20109;-71
2023/08/09 06:49:21;;;;;;;1.60;0.88;;;17.90;99.90;;;;;;5006151;28;20037;-73
2023/08/09 06:51:47;;;;;;;5.40;1.30;;;17.90;99.90;;;;;;5005741;28;20426;-72
2023/08/09 06:54:13;;;;;;;3.13;1.20;;;17.90;99.90;;;;;;4997766;28;20037;-71
2023/08/09 06:56:38;;;;;;;1.88;1.15;;;18.10;99.90;;;;;;5006952;28;20033;-71
2023/08/09 06:59:04;;;;;;;4.43;1.60;;;18.10;99.90;;;;;;4995683;28;20084;-74
2023/08/09 07:01:31;;;;;;;4.32;1.13;;;18.10;99.90;;;;;;5010233;28;20054;-74
2023/08/09 07:03:56;;;;;;;3.53;1.10;;;18.20;99.90;;;;;;5002903;28;20033;-75
2023/08/09 07:06:23;;;;;;;2.90;1.15;;;18.30;99.90;;;;;;5004367;28;20026;-73
2023/08/09 07:08:53;;;;;;;2.25;1.30;;;18.20;99.90;;;;;;5003816;28;20519;-73
2023/08/09 07:11:19;;;;;;;2.88;0.82;;;18.30;99.90;;;;;;4985826;28;20462;-73
2023/08/09 07:13:45;;;;;;;1.63;1.05;;;18.30;99.90;;;;;;5004088;28;20030;-73
2023/08/09 07:16:10;;;;;;;4.40;1.35;;;18.30;99.90;;;;;;4996901;28;20631;-73
2023/08/09 07:18:36;;;;;;;3.40;1.05;;;18.30;99.90;;;;;;4986715;28;20025;-72
2023/08/09 07:21:01;;;;;;;3.63;1.23;;;18.40;99.90;;;;;;5004740;28;20025;-72
2023/08/09 07:23:27;;;;;;;4.40;1.25;;;18.40;99.90;;;;;;4995618;28;20027;-73
2023/08/09 07:25:53;;;;;;;1.98;1.20;;;18.40;99.90;;;;;;4986809;28;21549;-73
2023/08/09 07:28:19;;;;;;;2.80;0.80;;;18.50;99.90;;;;;;5002024;28;20073;-73
2023/08/09 07:30:45;;;;;;;2.63;1.10;;;18.50;99.90;;;;;;4985845;28;20033;-73
2023/08/09 07:33:10;;;;;;;2.40;1.00;;;18.50;99.90;;;;;;4984207;28;20030;-73
2023/08/09 07:35:36;;;;;;;4.65;1.10;;;18.50;99.90;;;;;;5003656;28;20592;-73
2023/08/09 07:38:02;;;;;;;2.28;1.15;;;18.50;99.90;;;;;;4996691;28;20030;-74
2023/08/09 07:40:28;;;;;;;5.20;1.30;;;18.50;99.90;;;;;;5004675;28;20045;-72
2023/08/09 07:42:55;;;;;;;4.75;1.35;;;18.50;99.90;;;;;;5006234;28;20038;-73
2023/08/09 07:45:21;;;;;;;2.40;1.33;;;18.50;99.90;;;;;;5007850;28;20030;-72
2023/08/09 07:47:46;;;;;;;4.40;1.15;;;18.50;99.90;;;;;;4984022;28;20169;-72
2023/08/09 07:50:12;;;;;;;4.20;1.48;;;18.50;99.90;;;;;;5000066;28;20034;-72
2023/08/09 07:52:38;;;;;;;2.88;1.38;;;18.50;99.90;;;;;;5001135;28;20547;-73
2023/08/09 07:55:08;;;;;;;1.83;1.02;;;18.50;99.90;;;;;;5000031;28;20026;-72
2023/08/09 07:57:34;;;;;;;2.70;0.90;;;18.40;99.90;;;;;;5000306;28;20017;-73
2023/08/09 08:00:01;;;;;;;4.22;1.42;;;18.40;99.90;;;;;;5006737;28;20033;-71
2023/08/09 08:02:27;;;;;;;3.83;1.13;;;18.40;99.90;;;;;;4985390;28;20029;-72
2023/08/09 08:04:52;;;;;;;2.58;1.25;;;18.40;99.90;;;;;;4997774;28;20040;-74
2023/08/09 08:07:18;;;;;;;3.53;1.15;;;18.50;99.90;;;;;;5004020;28;20037;-71
2023/08/09 08:09:45;;;;;;;4.10;1.48;;;18.50;99.90;;;;;;4984272;28;20029;-71
2023/08/09 08:12:11;;;;;;;2.67;1.42;;;18.50;99.90;;;;;;4982055;28;20026;-73
2023/08/09 08:14:38;;;;;;;5.13;1.60;;;18.40;99.90;;;;;;5004585;28;20025;-74
2023/08/09 08:17:03;;;;;;;6.03;1.52;;;18.40;99.90;;;;;;4997799;28;20041;-73
2023/08/09 08:19:29;;;;;;;2.80;1.33;;;18.40;99.90;;;;;;5000653;28;20022;-73
2023/08/09 08:21:55;;;;;;;4.35;1.85;;;18.40;99.90;;;;;;4999517;28;20033;-73
2023/08/09 08:24:20;;;;;;;5.07;1.30;;;18.40;99.90;;;;;;5002493;28;20026;-73
2023/08/09 08:26:46;;;;;;;2.08;1.20;;;18.50;99.90;;;;;;5002147;28;20088;-74
2023/08/09 08:29:12;;;;;;;2.53;1.30;;;18.50;99.90;;;;;;4997741;28;20080;-73
2023/08/09 08:31:38;;;;;;;8.57;1.90;;;18.50;99.90;;;;;;5000510;28;20018;-72
2023/08/09 08:34:05;;;;;;;2.45;1.00;;;18.60;99.90;;;;;;4983891;28;20060;-73
2023/08/09 08:36:30;;;;;;;2.40;1.10;;;18.60;99.90;;;;;;5004959;28;20029;-73
2023/08/09 08:38:57;;;;;;;2.80;1.00;;;18.70;99.90;;;;;;4984413;28;20444;-73
2023/08/09 08:41:23;;;;;;;3.03;1.08;;;18.80;99.90;;;;;;4996229;28;20022;-73
2023/08/09 08:43:49;;;;;;;2.08;0.93;;;18.90;99.90;;;;;;5000771;28;20456;-74
2023/08/09 08:46:16;;;;;;;4.60;1.42;;;19.00;99.90;;;;;;4998907;28;20694;-74
2023/08/09 08:48:46;;;;;;;4.38;1.45;;;19.20;99.90;;;;;;4987281;28;20512;-74
2023/08/09 08:51:13;;;;;;;2.70;1.10;;;19.30;99.90;;;;;;4985168;28;20029;-74
2023/08/09 08:53:39;;;;;;;3.65;1.20;;;19.60;99.90;;;;;;5001887;28;20065;-74
2023/08/09 08:56:05;;;;;;;1.98;1.30;;;19.70;99.90;;;;;;4990882;28;20030;-74
2023/08/09 08:58:31;;;;;;;6.10;1.10;;;19.90;99.90;;;;;;5004375;28;20072;-74
2023/08/09 09:00:57;;;;;;;3.08;1.13;;;20.10;99.90;;;;;;5003559;28;20044;-74
2023/08/09 09:03:22;;;;;;;2.30;1.50;;;20.20;99.90;;;;;;5008129;28;20102;-74
2023/08/09 09:05:48;;;;;;;3.90;1.30;;;20.30;99.90;;;;;;5002991;28;20077;-75
2023/08/09 09:08:14;;;;;;;4.32;1.73;;;20.40;99.90;;;;;;5003481;28;20026;-75
2023/08/09 09:10:44;;;;;;;4.95;1.27;;;20.50;99.90;;;;;;4985235;28;20050;-74
2023/08/09 09:13:26;;;;;;;2.67;1.30;;;20.60;99.90;;;;;;4990231;28;20025;-73
2023/08/09 09:15:54;;;;;;;3.42;1.25;;;20.60;99.90;;;;;;5007614;28;20679;-74
2023/08/09 09:18:21;;;;;;;5.72;1.58;;;20.60;99.90;;;;;;4999636;28;20076;-74
2023/08/09 09:20:47;;;;;;;2.50;1.17;;;20.60;99.70;;;;;;4991187;28;20029;-74
2023/08/09 09:23:28;;;;;;;3.20;1.20;;;20.60;99.60;;;;;;5005073;28;20055;-74
2023/08/09 09:26:06;;;;;;;2.47;1.20;;;20.70;99.70;;;;;;5017564;28;20441;-74
2023/08/09 09:28:47;;;;;;;3.05;1.50;;;20.70;99.70;;;;;;5017420;28;20080;-74
2023/08/09 09:31:17;;;;;;;2.35;1.20;;;20.80;99.40;;;;;;4999706;28;20026;-75
2023/08/09 09:33:49;;;;;;;5.93;1.08;;;20.80;99.40;;;;;;5016847;28;20361;-74
2023/08/09 09:36:16;;;;;;;3.50;1.02;;;20.80;99.40;;;;;;5017189;28;20033;-75
2023/08/09 09:38:44;;;;;;;3.42;1.15;;;20.90;99.30;;;;;;5017406;28;20052;-75
2023/08/09 09:41:10;;;;;;;1.67;1.15;;;21.00;99.00;;;;;;5017292;28;20022;-74
2023/08/09 09:43:43;;;;;;;3.20;1.08;;;20.90;99.10;;;;;;5016833;28;20022;-73
2023/08/09 09:46:22;;;;;;;4.18;1.25;;;21.00;98.90;;;;;;5017066;28;20022;-74
2023/08/09 09:48:57;;;;;;;4.13;1.58;;;21.00;99.00;;;;;;5016807;28;20076;-73
2023/08/09 09:51:24;;;;;;;2.25;1.13;;;21.00;98.90;;;;;;4997206;28;20030;-73
2023/08/09 09:53:50;;;;;;;3.35;1.33;;;21.10;98.70;;;;;;5008319;28;20026;-74
2023/08/09 09:56:15;;;;;;;3.45;1.48;;;21.10;98.60;;;;;;5006152;28;24435;-74
2023/08/09 09:58:42;;;;;;;3.13;0.98;;;21.10;98.50;;;;;;4998944;28;20022;-74
2023/08/09 10:01:11;;;;;;;5.00;1.48;;;21.20;98.10;;;;;;5007361;28;20022;-74
2023/08/09 10:03:42;;;;;;;2.15;1.40;;;21.20;98.00;;;;;;5016619;28;20052;-73
2023/08/09 10:06:13;;;;;;;3.15;1.27;;;21.20;98.00;;;;;;5030141;28;20037;-74
2023/08/09 10:08:41;;;;;;;1.75;1.15;;;21.30;98.00;;;;;;5022122;28;20033;-73
2023/08/09 10:11:09;;;;;;;3.55;1.85;;;21.30;98.00;;;;;;5015961;28;20030;-74
2023/08/09 10:13:36;;;;;;;2.50;1.13;;;21.30;97.60;;;;;;5015802;28;20053;-74
2023/08/09 10:16:05;;;;;;;4.43;1.50;;;21.30;97.60;;;;;;5013060;28;20057;-74
2023/08/09 10:18:57;;;;;;;3.50;1.42;;;21.30;97.50;;;;;;5016839;28;20128;-74
2023/08/09 10:21:24;;;;;;;5.22;1.65;;;21.20;97.40;;;;;;5016050;28;20489;-73
2023/08/09 10:24:06;;;;;;;2.42;1.33;;;21.20;97.50;;;;;;5012974;28;20029;-74
2023/08/09 10:26:32;;;;;;;3.95;1.30;;;21.10;97.60;;;;;;5007933;28;20080;-73
2023/08/09 10:29:02;;;;;;;4.85;1.20;;;21.10;97.40;;;;;;5014405;28;20053;-74
2023/08/09 10:31:48;;;;;;;2.47;1.38;;;21.00;97.40;;;;;;5005846;28;20022;-73
2023/08/09 10:34:15;;;;;;;3.70;1.50;;;21.10;97.50;;;;;;4989782;28;20029;-73
2023/08/09 10:36:41;;;;;;;4.40;1.52;;;21.10;97.60;;;;;;5008662;28;20366;-73
2023/08/09 10:39:12;;;;;;;6.13;1.77;;;21.20;97.70;;;;;;4991632;28;20068;-71
2023/08/09 10:41:52;;;;;;;2.83;1.20;;;21.20;97.50;;;;;;5007108;28;20026;-70
2023/08/09 10:44:31;;;;;;;2.80;1.20;;;21.30;97.30;;;;;;5008785;28;20026;-71
2023/08/09 10:47:08;;;;;;;2.75;1.17;;;21.40;97.40;;;;;;5006399;28;20025;-71
2023/08/09 10:49:48;;;;;;;4.18;1.20;;;21.60;97.30;;;;;;4999226;28;20044;-72
2023/08/09 10:52:34;;;;;;;2.10;1.42;;;21.70;97.00;;;;;;5005708;28;20096;-72
2023/08/09 10:55:18;;;;;;;2.92;1.13;;;21.80;97.00;;;;;;5006301;28;20563;-72
2023/08/09 10:57:44;;;;;;;5.13;1.40;;;21.80;96.80;;;;;;4999848;28;20117;-71
2023/08/09 11:00:13;;;;;;;3.15;1.05;;;21.90;96.50;;;;;;4993718;28;20489;-72
2023/08/09 11:02:49;;;;;;;3.25;1.10;;;21.90;96.60;;;;;;4997506;28;20054;-72
2023/08/09 11:05:17;;;;;;;2.35;1.30;;;21.90;96.50;;;;;;4995520;28;20489;-71
2023/08/09 11:07:55;;;;;;;2.90;1.50;;;21.90;96.60;;;;;;4995960;28;20070;-72
2023/08/09 11:10:32;;;;;;;4.95;1.60;;;21.90;96.70;;;;;;4994316;28;20367;-71
2023/08/09 11:13:04;;;;;;;3.72;1.83;;;21.90;96.70;;;;;;4997876;28;20052;-72
2023/08/09 11:15:30;;;;;;;2.00;1.25;;;22.00;96.70;;;;;;4998600;28;20428;-72
2023/08/09 11:17:56;;;;;;;2.50;1.38;;;22.10;96.60;;;;;;4996680;28;20030;-72
2023/08/09 11:20:21;;;;;;;1.60;1.00;;;22.20;96.60;;;;;;5003090;28;20022;-72
2023/08/09 11:22:58;;;;;;;4.90;1.95;;;22.30;96.60;;;;;;4985213;28;20520;-71
2023/08/09 11:25:26;;;;;;;2.55;1.15;;;22.30;96.10;;;;;;4993064;28;20113;-71
2023/08/09 11:27:55;;;;;;;2.67;1.58;;;22.40;95.90;;;;;;4997792;28;20113;-71
2023/08/09 11:30:22;;;;;;;4.50;1.40;;;22.40;95.80;;;;;;4983803;28;20073;-72
2023/08/09 11:32:59;;;;;;;4.50;1.40;;;22.40;95.80;;;;;;5001706;28;20040;-72
2023/08/09 11:35:29;;;;;;;1.38;1.10;;;22.50;95.80;;;;;;4996379;28;20037;-71
2023/08/09 11:37:55;;;;;;;4.47;1.17;;;22.60;95.70;;;;;;4996459;28;20030;-72
2023/08/09 11:40:21;;;;;;;1.98;1.45;;;22.60;95.70;;;;;;4997843;28;20052;-72
2023/08/09 11:42:47;;;;;;;2.33;1.60;;;22.80;95.50;;;;;;4996143;28;20022;-72
2023/08/09 11:45:13;;;;;;;3.15;1.42;;;22.80;95.30;;;;;;4998152;28;20121;-72
2023/08/09 11:47:38;;;;;;;3.70;1.30;;;22.80;95.00;;;;;;4996428;28;20065;-71
2023/08/09 11:50:36;;;;;;;4.97;1.85;;;22.90;95.00;;;;;;5003146;28;20030;-72
2023/08/09 11:53:04;;;;;;;3.65;1.23;;;22.90;94.80;;;;;;4964226;28;20412;-72
2023/08/09 11:55:30;;;;;;;3.45;1.38;;;22.90;94.70;;;;;;4997037;28;20034;-72
2023/08/09 11:57:55;;;;;;;3.78;1.20;;;22.90;94.60;;;;;;4994568;28;20057;-72
2023/08/09 12:00:27;;;;;;;2.42;1.50;;;22.80;94.30;;;;;;4999823;28;20043;-72
2023/08/09 12:02:55;;;;;;;4.05;1.27;;;22.80;94.00;;;;;;4998192;28;20362;-73
2023/08/09 12:05:22;;;;;;;3.30;1.23;;;22.80;94.30;;;;;;4997259;28;20029;-73
2023/08/09 12:07:52;;;;;;;2.08;1.17;;;22.80;94.50;;;;;;4997944;28;20022;-73
2023/08/09 12:10:20;;;;;;;2.10;1.27;;;22.80;94.70;;;;;;4990340;28;20417;-73
2023/08/09 12:12:47;;;;;;;1.98;1.00;;;22.80;94.90;;;;;;4994671;28;20026;-75
2023/08/09 12:15:14;;;;;;;2.90;1.20;;;22.80;94.90;;;;;;4994741;28;20022;-72
2023/08/09 12:17:40;;;;;;;2.50;1.30;;;22.80;94.90;;;;;;4997498;28;20080;-73
2023/08/09 12:20:07;;;;;;;2.80;1.45;;;22.60;94.80;;;;;;5000408;28;20065;-74
2023/08/09 12:22:33;;;;;;;3.13;1.17;;;22.60;94.90;;;;;;5001176;28;20033;-74
2023/08/09 12:24:59;;;;;;;2.13;1.35;;;22.70;95.00;;;;;;4979415;28;20030;-74
2023/08/09 12:27:26;;;;;;;4.88;1.70;;;22.60;94.70;;;;;;5000691;28;21461;-73
2023/08/09 12:29:52;;;;;;;2.78;1.70;;;22.60;95.00;;;;;;4979078;28;20052;-74
2023/08/09 12:32:18;;;;;;;4.13;1.50;;;22.70;95.00;;;;;;4996638;28;20106;-74
2023/08/09 12:34:44;;;;;;;4.00;1.52;;;22.70;94.70;;;;;;4997734;28;20120;-74
2023/08/09 12:37:11;;;;;;;3.70;1.58;;;22.70;94.90;;;;;;4984269;28;20033;-74
2023/08/09 12:39:36;;;;;;;3.67;1.52;;;22.80;94.90;;;;;;4984963;28;20037;-73
2023/08/09 12:42:03;;;;;;;3.28;1.48;;;22.90;94.80;;;;;;4985458;28;20469;-76
2023/08/09 12:44:29;;;;;;;4.55;1.45;;;23.00;94.90;;;;;;5003641;28;20147;-73
2023/08/09 12:46:54;;;;;;;2.50;1.48;;;23.10;94.30;;;;;;5001607;28;20023;-73
2023/08/09 12:49:21;;;;;;;2.97;1.17;;;23.20;94.30;;;;;;5010415;28;20030;-73